Time;durP1;ratioP1;P1;durP2;ratioP2;P2;SDS_P1;SDS_P2;PMS_P1;PMS_P2;Temp;Humidity;BMP_temperature;BMP_pressure;BME280_temperature;BME280_humidity;BME280_pressure;Samples;Min_cycle;Max_cycle;Signal;HPM_P1;HPM_P2
2021/04/13 00:00:38;;;;;;;7.40;6.20;;;;;;;3.96;58.27;96357.66;6881688;28;20275;-72
2021/04/13 00:04:07;;;;;;;6.67;5.63;;;;;;;3.95;58.35;96361.19;6889344;28;20225;-72
2021/04/13 00:07:30;;;;;;;7.27;6.37;;;;;;;3.91;58.29;96352.63;6885742;28;20234;-72
2021/04/13 00:10:54;;;;;;;6.77;5.77;;;;;;;3.87;58.46;96351.06;6886494;28;20315;-72
2021/04/13 00:14:18;;;;;;;7.90;6.07;;;;;;;3.85;58.66;96356.38;6886011;28;20596;-72
2021/04/13 00:17:40;;;;;;;6.70;6.00;;;;;;;3.83;59.19;96357.34;6898904;28;20236;-71
2021/04/13 00:21:07;;;;;;;7.37;5.30;;;;;;;3.83;58.76;96352.09;6865469;28;20756;-72
2021/04/13 00:24:28;;;;;;;5.80;5.10;;;;;;;3.79;58.43;96346.13;6895070;28;20231;-72
2021/04/13 00:27:49;;;;;;;6.67;5.10;;;;;;;3.77;58.01;96349.75;6889320;28;20232;-72
2021/04/13 00:31:18;;;;;;;4.93;4.53;;;;;;;3.70;58.36;96345.69;6896051;28;20209;-72
2021/04/13 00:35:10;;;;;;;7.73;5.63;;;;;;;3.67;58.32;96351.09;6882024;28;20249;-71
2021/04/13 00:38:32;;;;;;;7.30;6.50;;;;;;;3.62;58.48;96347.81;6879442;28;20314;-72
2021/04/13 00:42:02;;;;;;;6.03;5.20;;;;;;;3.63;58.66;96352.13;6876609;28;20228;-71
2021/04/13 00:45:25;;;;;;;6.60;6.00;;;;;;;3.61;59.09;96352.22;6886309;28;20269;-73
2021/04/13 00:48:46;;;;;;;7.17;6.33;;;;;;;3.59;58.89;96343.53;6885451;28;20326;-71
2021/04/13 00:52:10;;;;;;;6.93;6.13;;;;;;;3.59;59.20;96343.53;6899213;28;20221;-71
2021/04/13 00:55:35;;;;;;;7.57;6.83;;;;;;;3.57;58.98;96347.16;6885013;28;20294;-72
2021/04/13 00:59:03;;;;;;;6.50;5.90;;;;;;;3.51;59.18;96343.03;6901954;28;20282;-71
2021/04/13 01:02:31;;;;;;;7.37;6.67;;;;;;;3.43;59.25;96345.97;6879493;28;20254;-71
2021/04/13 01:05:57;;;;;;;6.77;6.03;;;;;;;3.41;59.13;96344.34;6894557;28;20218;-71
2021/04/13 01:09:28;;;;;;;7.63;6.80;;;;;;;3.39;59.44;96347.03;6886380;28;20639;-72
2021/04/13 01:13:11;;;;;;;7.07;6.37;;;;;;;3.32;59.75;96336.88;6892164;28;20238;-72
2021/04/13 01:16:39;;;;;;;6.60;6.00;;;;;;;3.27;59.57;96341.47;6893809;28;20235;-72
2021/04/13 01:20:06;;;;;;;6.93;6.33;;;;;;;3.27;59.68;96339.66;6892266;28;20274;-71
2021/04/13 01:23:34;;;;;;;7.43;6.63;;;;;;;3.24;59.15;96337.19;6888781;28;20252;-71
2021/04/13 01:26:56;;;;;;;7.33;6.57;;;;;;;3.19;60.25;96333.06;6897967;28;20236;-71
2021/04/13 01:30:17;;;;;;;7.13;6.40;;;;;;;3.23;60.56;96334.63;6902956;28;20231;-71
2021/04/13 01:33:51;;;;;;;8.93;7.20;;;;;;;3.24;60.41;96333.72;6879885;28;20213;-72
2021/04/13 01:37:23;;;;;;;7.10;6.40;;;;;;;3.20;60.12;96326.88;6899150;28;20716;-72
2021/04/13 01:41:01;;;;;;;8.97;6.77;;;;;;;3.22;60.59;96335.56;6901044;28;20220;-72
2021/04/13 01:44:42;;;;;;;8.63;6.60;;;;;;;3.16;60.04;96331.44;6894880;28;20567;-71
2021/04/13 01:48:05;;;;;;;8.13;7.33;;;;;;;3.11;59.75;96335.16;6885495;28;20240;-72
2021/04/13 01:51:31;;;;;;;8.40;7.60;;;;;;;3.07;60.69;96329.16;6884981;28;20219;-72
2021/04/13 01:54:52;;;;;;;6.67;5.93;;;;;;;3.11;60.51;96327.28;6891918;28;20211;-73
2021/04/13 01:58:31;;;;;;;7.50;5.70;;;;;;;3.11;59.93;96332.53;6899238;28;20641;-73
2021/04/13 02:01:58;;;;;;;8.17;6.50;;;;;;;3.05;59.86;96330.16;6888959;28;20224;-71
2021/04/13 02:05:21;;;;;;;9.30;7.37;;;;;;;3.01;59.63;96338.19;6902620;28;20215;-71
2021/04/13 02:08:48;;;;;;;8.97;7.20;;;;;;;2.90;60.05;96336.91;6901812;28;20204;-71
2021/04/13 02:12:17;;;;;;;8.63;7.80;;;;;;;2.91;61.18;96336.84;6896931;28;20212;-71
2021/04/13 02:15:52;;;;;;;7.47;6.77;;;;;;;3.00;60.97;96343.47;6886630;28;20219;-71
2021/04/13 02:19:13;;;;;;;7.43;6.57;;;;;;;3.04;60.57;96342.44;6903620;28;20215;-71
2021/04/13 02:22:33;;;;;;;8.23;7.43;;;;;;;3.07;60.71;96341.47;6879645;28;20753;-71
2021/04/13 02:25:54;;;;;;;8.63;7.27;;;;;;;3.03;61.32;96341.56;6868491;28;20704;-71
2021/04/13 02:29:16;;;;;;;7.70;7.00;;;;;;;2.99;60.64;96355.75;6881891;28;20241;-71
2021/04/13 02:32:43;;;;;;;9.33;8.20;;;;;;;2.93;60.72;96348.13;6877827;28;20207;-70
2021/04/13 02:36:15;;;;;;;8.10;7.40;;;;;;;2.89;60.82;96349.16;6879082;28;20699;-70
2021/04/13 02:39:38;;;;;;;7.70;6.83;;;;;;;2.89;61.01;96348.31;6870719;28;20604;-66
2021/04/13 02:43:05;;;;;;;7.93;7.13;;;;;;;2.89;61.39;96343.94;6883016;28;20649;-71
2021/04/13 02:46:30;;;;;;;8.43;7.17;;;;;;;2.96;61.15;96341.91;6881328;28;20238;-71
2021/04/13 02:49:51;;;;;;;10.20;7.57;;;;;;;2.91;61.38;96351.75;6894378;28;20226;-71
2021/04/13 02:53:14;;;;;;;7.80;6.83;;;;;;;2.93;61.17;96353.38;6881034;28;20217;-71
2021/04/13 02:56:40;;;;;;;7.37;6.53;;;;;;;2.95;61.18;96343.69;6889217;28;20312;-71
2021/04/13 03:00:06;;;;;;;8.77;7.60;;;;;;;2.98;61.47;96351.41;6879004;28;20224;-71
2021/04/13 03:03:31;;;;;;;9.43;8.13;;;;;;;2.96;61.35;96353.25;6893676;28;20241;-70
2021/04/13 03:06:53;;;;;;;10.87;9.33;;;;;;;2.93;61.51;96358.63;6891005;28;20236;-70
2021/04/13 03:10:17;;;;;;;11.70;8.33;;;;;;;2.95;61.86;96361.19;6886032;28;20270;-70
2021/04/13 03:13:40;;;;;;;9.37;8.47;;;;;;;2.98;62.02;96359.28;6875764;28;20255;-67
2021/04/13 03:17:01;;;;;;;51.90;29.97;;;;;;;2.98;62.35;96351.41;6894212;28;20307;-70
2021/04/13 03:20:26;;;;;;;14.17;11.50;;;;;;;2.95;62.29;96353.31;6878031;28;20223;-71
2021/04/13 03:23:47;;;;;;;11.33;9.40;;;;;;;2.93;62.14;96355.13;6877596;28;20226;-70
2021/04/13 03:27:17;;;;;;;8.73;7.93;;;;;;;2.94;61.76;96354.22;6885773;28;20349;-71
2021/04/13 03:30:40;;;;;;;10.77;9.13;;;;;;;2.96;62.38;96352.41;6873194;28;20222;-71
2021/04/13 03:34:01;;;;;;;10.13;9.13;;;;;;;2.94;62.64;96341.97;6878319;28;20235;-71
2021/04/13 03:37:22;;;;;;;10.70;9.60;;;;;;;2.94;62.69;96355.09;6877708;28;20635;-71
2021/04/13 03:40:46;;;;;;;9.50;8.17;;;;;;;2.96;62.92;96349.78;6895734;28;20674;-70
2021/04/13 03:44:07;;;;;;;8.33;7.47;;;;;;;2.96;62.68;96340.16;6895110;28;20599;-70
2021/04/13 03:47:33;;;;;;;8.53;7.73;;;;;;;3.01;62.41;96345.19;6874937;28;20731;-71
2021/04/13 03:51:05;;;;;;;8.43;7.63;;;;;;;3.01;62.40;96347.81;6896678;28;20215;-70
2021/04/13 03:54:28;;;;;;;8.47;7.67;;;;;;;2.92;62.42;96341.16;6896507;28;20736;-73
2021/04/13 03:57:49;;;;;;;7.50;6.77;;;;;;;2.90;62.61;96345.63;6891562;28;20218;-73
2021/04/13 04:01:16;;;;;;;7.97;6.90;;;;;;;2.92;62.37;96342.94;6890389;28;20214;-73
2021/04/13 04:04:42;;;;;;;8.20;6.63;;;;;;;2.92;62.36;96353.41;6880124;28;20254;-71
2021/04/13 04:08:05;;;;;;;7.37;6.67;;;;;;;2.94;62.20;96347.22;6896372;28;20237;-71
2021/04/13 04:11:32;;;;;;;7.37;6.67;;;;;;;2.91;61.91;96349.97;6895364;28;20250;-70
2021/04/13 04:15:04;;;;;;;9.53;7.33;;;;;;;2.90;62.21;96353.50;6875793;28;20223;-70
2021/04/13 04:18:32;;;;;;;8.40;7.07;;;;;;;2.87;62.35;96350.13;6877489;28;20645;-74
2021/04/13 04:22:06;;;;;;;7.30;6.60;;;;;;;2.85;62.80;96359.84;6874966;28;20990;-71
2021/04/13 04:25:43;;;;;;;8.10;7.30;;;;;;;2.84;62.86;96355.53;6882802;28;20283;-70
2021/04/13 04:29:34;;;;;;;8.47;7.20;;;;;;;2.88;62.94;96364.97;6895305;28;20228;-71
2021/04/13 04:32:59;;;;;;;9.83;7.93;;;;;;;2.89;62.51;96353.56;6869596;28;20264;-70
2021/04/13 04:36:26;;;;;;;10.57;8.47;;;;;;;2.89;62.58;96353.56;6877802;28;20579;-71
2021/04/13 04:39:46;;;;;;;9.20;7.63;;;;;;;2.89;62.42;96359.66;6860070;28;21008;-71
2021/04/13 04:43:14;;;;;;;10.63;8.33;;;;;;;2.90;62.81;96358.75;6888286;28;20230;-71
2021/04/13 04:46:38;;;;;;;8.43;7.47;;;;;;;2.89;62.55;96353.56;6881705;28;20695;-70
2021/04/13 04:49:58;;;;;;;8.90;8.00;;;;;;;2.87;62.78;96364.09;6875564;28;20260;-70
2021/04/13 04:53:19;;;;;;;9.93;8.00;;;;;;;2.87;62.34;96352.75;6884218;28;20226;-70
2021/04/13 04:56:40;;;;;;;10.10;9.20;;;;;;;2.89;62.86;96358.81;6862070;28;20215;-72
2021/04/13 05:00:00;;;;;;;9.50;8.50;;;;;;;2.89;62.69;96356.19;6878315;28;20230;-71
2021/04/13 05:03:22;;;;;;;8.77;7.97;;;;;;;2.89;62.83;96354.41;6897851;28;20634;-71
2021/04/13 05:06:42;;;;;;;10.80;9.23;;;;;;;2.91;62.96;96357.00;6864251;28;20220;-71
2021/04/13 05:10:03;;;;;;;8.60;7.80;;;;;;;2.93;63.13;96360.38;6878765;28;20589;-71
2021/04/13 05:13:23;;;;;;;8.63;7.70;;;;;;;2.92;62.80;96363.91;6877454;28;20229;-71
2021/04/13 05:16:44;;;;;;;11.70;8.93;;;;;;;2.91;63.00;96373.59;6871173;28;20674;-71
2021/04/13 05:20:05;;;;;;;9.80;8.90;;;;;;;2.91;63.22;96368.34;6886180;28;20595;-71
2021/04/13 05:23:26;;;;;;;9.47;8.63;;;;;;;2.97;63.18;96369.81;6865184;28;20235;-71
2021/04/13 05:26:46;;;;;;;8.20;7.50;;;;;;;3.00;62.77;96375.81;6881721;28;20241;-72
2021/04/13 05:30:09;;;;;;;8.80;7.60;;;;;;;3.07;63.22;96372.97;6875248;28;20246;-72
2021/04/13 05:33:29;;;;;;;8.83;8.03;;;;;;;3.13;62.46;96383.16;6882437;28;20226;-72
2021/04/13 05:36:52;;;;;;;8.60;7.80;;;;;;;3.17;62.45;96384.78;6866956;28;20592;-71
2021/04/13 05:40:17;;;;;;;9.53;8.53;;;;;;;3.19;62.91;96389.03;6861719;28;20231;-71
2021/04/13 05:43:39;;;;;;;10.07;8.70;;;;;;;3.28;62.91;96387.78;6883501;28;20764;-71
2021/04/13 05:47:00;;;;;;;12.03;8.47;;;;;;;3.37;62.60;96393.50;6875101;28;20627;-71
2021/04/13 05:50:25;;;;;;;9.23;8.33;;;;;;;3.43;62.65;96389.75;6892966;28;20709;-70
2021/04/13 05:53:46;;;;;;;10.37;8.47;;;;;;;3.43;62.63;96395.00;6900184;28;20227;-71
2021/04/13 05:57:09;;;;;;;8.97;8.07;;;;;;;3.37;62.79;96395.28;6876584;28;20240;-71
2021/04/13 06:00:32;;;;;;;10.33;7.77;;;;;;;3.43;62.61;96400.25;6863831;28;20260;-72
2021/04/13 06:03:55;;;;;;;9.93;8.93;;;;;;;3.56;63.09;96393.56;6894637;28;20231;-71
2021/04/13 06:07:16;;;;;;;9.80;8.87;;;;;;;3.65;62.89;96394.94;6886849;28;20228;-70
2021/04/13 06:10:36;;;;;;;9.50;8.57;;;;;;;3.75;62.81;96405.00;6871106;28;20231;-70
2021/04/13 06:13:59;;;;;;;8.17;7.33;;;;;;;3.87;63.08;96399.16;6877228;28;20216;-70
2021/04/13 06:17:19;;;;;;;8.57;7.73;;;;;;;4.00;62.38;96399.50;6879346;28;20221;-70
2021/04/13 06:20:40;;;;;;;8.53;7.63;;;;;;;4.14;62.62;96402.34;6897245;28;20235;-71
2021/04/13 06:24:00;;;;;;;11.80;9.20;;;;;;;4.23;62.07;96404.56;6898135;28;20230;-70
2021/04/13 06:27:21;;;;;;;21.57;19.33;;;;;;;4.20;61.25;96407.34;6886926;28;20224;-70
2021/04/13 06:30:43;;;;;;;12.20;10.80;;;;;;;4.17;61.81;96407.50;6887895;28;20701;-69
2021/04/13 06:34:04;;;;;;;8.43;7.70;;;;;;;4.21;61.50;96416.06;6862060;28;20220;-71
2021/04/13 06:37:25;;;;;;;11.00;9.60;;;;;;;4.26;61.93;96416.72;6882842;28;20336;-71
2021/04/13 06:41:08;;;;;;;10.17;9.17;;;;;;;4.35;61.84;96413.66;6869662;28;20583;-70
2021/04/13 06:44:30;;;;;;;10.70;9.60;;;;;;;4.40;61.97;96416.09;6869226;28;20230;-72
2021/04/13 06:48:39;;;;;;;7.93;7.23;;;;;;;4.49;62.06;96415.66;6884097;28;20231;-71
2021/04/13 06:52:30;;;;;;;9.93;8.93;;;;;;;4.56;61.82;96411.81;6886639;28;20284;-70
2021/04/13 06:56:21;;;;;;;8.83;7.93;;;;;;;4.64;61.91;96422.81;6882202;28;20620;-71
2021/04/13 07:00:08;;;;;;;8.93;8.03;;;;;;;4.62;62.20;96429.97;6890060;28;20595;-71
2021/04/13 07:03:55;;;;;;;9.20;8.13;;;;;;;4.63;62.57;96429.00;6839293;28;20236;-72
2021/04/13 07:07:28;;;;;;;11.30;7.93;;;;;;;4.62;62.34;96429.97;6863048;28;20233;-72
2021/04/13 07:10:55;;;;;;;8.60;7.83;;;;;;;4.69;62.81;96431.34;6878943;28;20221;-71
2021/04/13 07:14:19;;;;;;;11.33;7.80;;;;;;;4.74;62.14;96437.25;6897150;28;20220;-72
2021/04/13 07:18:00;;;;;;;8.43;7.60;;;;;;;4.71;62.17;96437.41;6880721;28;20219;-71
2021/04/13 07:21:29;;;;;;;9.23;7.27;;;;;;;4.73;62.07;96425.88;6873907;28;20228;-71
2021/04/13 07:25:00;;;;;;;7.83;7.03;;;;;;;4.86;62.52;96430.56;6880228;28;20236;-73
2021/04/13 07:28:24;;;;;;;6.93;6.33;;;;;;;5.03;62.15;96430.63;6896346;28;20641;-73
2021/04/13 07:32:00;;;;;;;8.50;7.00;;;;;;;5.27;61.77;96428.56;6876221;28;20220;-71
2021/04/13 07:35:22;;;;;;;7.90;7.20;;;;;;;5.42;60.94;96427.81;6883011;28;20560;-71
2021/04/13 07:38:45;;;;;;;7.53;6.37;;;;;;;5.49;60.32;96435.31;6891587;28;21369;-72
2021/04/13 07:42:10;;;;;;;7.50;6.80;;;;;;;5.54;60.10;96443.84;6884521;28;20217;-73
2021/04/13 07:45:43;;;;;;;7.27;6.67;;;;;;;5.61;59.95;96441.75;6874848;28;20710;-72
2021/04/13 07:49:38;;;;;;;7.00;6.30;;;;;;;5.70;59.54;96435.16;6894213;28;20343;-70
2021/04/13 07:53:01;;;;;;;7.87;7.07;;;;;;;5.84;59.49;96435.31;6876750;28;20283;-75
2021/04/13 07:56:39;;;;;;;7.37;6.67;;;;;;;5.99;59.22;96424.84;6866827;28;20220;-71
2021/04/13 08:00:22;;;;;;;7.93;6.97;;;;;;;6.22;59.08;96428.94;6879369;28;20290;-72
2021/04/13 08:03:43;;;;;;;9.83;7.43;;;;;;;6.38;58.37;96428.97;6871989;28;20239;-72
2021/04/13 08:07:22;;;;;;;8.20;7.40;;;;;;;6.46;58.37;96435.53;6886031;28;20229;-71
2021/04/13 08:10:42;;;;;;;7.70;7.00;;;;;;;6.63;58.83;96431.13;6877401;28;20226;-72
2021/04/13 08:14:39;;;;;;;8.03;7.33;;;;;;;6.82;57.82;96435.31;6859436;28;20219;-71
2021/04/13 08:18:17;;;;;;;7.50;6.47;;;;;;;7.04;57.66;96427.03;6861563;28;20558;-71
2021/04/13 08:21:37;;;;;;;7.10;6.50;;;;;;;7.38;57.09;96433.06;6872173;28;20226;-72
2021/04/13 08:25:02;;;;;;;8.30;7.60;;;;;;;7.81;57.03;96432.25;6873473;28;20222;-73
2021/04/13 08:28:31;;;;;;;6.67;6.07;;;;;;;8.22;54.97;96424.47;6863222;28;20667;-74
2021/04/13 08:36:16;;;;;;;7.43;5.90;;;;;;;9.10;53.15;96429.56;6900585;28;20264;-73
2021/04/13 08:39:50;;;;;;;6.57;5.90;;;;;;;9.87;51.89;96428.84;6875036;28;20225;-73
2021/04/13 08:43:49;;;;;;;5.60;5.10;;;;;;;10.80;49.48;96427.72;6861452;28;20710;-74
2021/04/13 08:47:22;;;;;;;7.63;5.87;;;;;;;11.61;47.69;96415.56;6860864;28;20579;-73
2021/04/13 08:50:50;;;;;;;4.93;4.50;;;;;;;12.50;45.58;96415.81;6881732;28;20278;-73
2021/04/13 08:54:20;;;;;;;5.17;4.70;;;;;;;13.28;43.26;96418.47;6897445;28;20214;-74
2021/04/13 08:58:04;;;;;;;6.00;5.50;;;;;;;14.01;41.53;96409.72;6905889;28;20840;-74
2021/04/13 09:01:41;;;;;;;7.63;5.90;;;;;;;14.79;40.14;96406.56;6880254;28;20231;-75
2021/04/13 09:05:07;;;;;;;7.33;6.47;;;;;;;15.66;38.27;96397.00;6895508;28;20252;-73
2021/04/13 09:08:35;;;;;;;6.17;5.40;;;;;;;16.59;37.12;96395.44;6895349;28;20234;-74
2021/04/13 09:12:06;;;;;;;6.37;5.73;;;;;;;16.87;35.86;96396.31;6898034;28;20222;-72
2021/04/13 09:15:27;;;;;;;6.40;5.80;;;;;;;16.37;34.58;96402.91;6903535;28;20245;-73
2021/04/13 09:18:55;;;;;;;6.70;6.10;;;;;;;15.35;35.39;96410.44;6890083;28;20256;-74
2021/04/13 09:22:28;;;;;;;7.03;6.43;;;;;;;16.04;35.38;96412.25;6879620;28;20309;-74
2021/04/13 09:25:52;;;;;;;7.57;6.87;;;;;;;15.43;35.00;96420.47;6879335;28;20254;-73
2021/04/13 09:29:28;;;;;;;7.40;6.70;;;;;;;16.14;35.02;96413.94;6895469;28;20358;-73
2021/04/13 09:32:49;;;;;;;8.20;7.40;;;;;;;17.19;32.63;96406.63;6893993;28;20273;-73
2021/04/13 09:36:15;;;;;;;8.13;6.93;;;;;;;18.21;33.10;96386.56;6884306;28;20827;-75
2021/04/13 09:39:35;;;;;;;7.30;6.60;;;;;;;19.49;32.07;96400.16;6895620;28;20233;-76
2021/04/13 09:43:11;;;;;;;8.13;7.33;;;;;;;20.72;30.38;96401.03;6897861;28;20312;-75
2021/04/13 09:46:47;;;;;;;8.27;7.57;;;;;;;21.51;27.71;96391.19;6866637;28;20232;-78
2021/04/13 09:50:44;;;;;;;9.00;8.30;;;;;;;22.37;26.58;96382.91;6875759;28;20227;-76
2021/04/13 09:54:15;;;;;;;9.20;8.40;;;;;;;22.71;26.46;96382.44;6894504;28;20216;-80
2021/04/13 09:57:44;;;;;;;9.27;8.38;;;;;;;23.31;24.96;96383.16;6877970;28;20217;-78
2021/04/13 10:01:15;;;;;;;8.18;7.57;;;;;;;23.71;24.37;96384.53;6885222;28;20813;-78
2021/04/13 10:05:02;;;;;;;8.40;7.70;;;;;;;24.25;23.18;96378.69;6857202;28;20636;-77
2021/04/13 10:08:25;;;;;;;9.20;8.27;;;;;;;24.65;23.63;96375.31;6854838;28;20249;-75
2021/04/13 10:11:53;;;;;;;8.55;7.85;;;;;;;25.04;22.93;96371.28;6864752;28;20249;-76
2021/04/13 10:15:16;;;;;;;7.65;7.05;;;;;;;24.08;22.77;96390.81;6874579;28;20229;-76
2021/04/13 10:18:58;;;;;;;7.35;6.78;;;;;;;23.88;22.48;96390.59;6881558;28;20221;-75
2021/04/13 10:22:47;;;;;;;7.38;6.75;;;;;;;23.82;22.76;96384.06;6875174;28;20256;-75
2021/04/13 10:26:28;;;;;;;7.25;6.65;;;;;;;24.12;22.62;96382.09;6888829;28;20223;-73
2021/04/13 10:30:07;;;;;;;7.50;6.90;;;;;;;24.64;22.81;96373.66;6874381;28;20228;-77
2021/04/13 10:33:50;;;;;;;6.57;6.07;;;;;;;24.85;22.37;96364.59;6886565;28;20260;-75
2021/04/13 10:37:40;;;;;;;7.53;6.53;;;;;;;24.59;21.31;96357.13;6888936;28;20816;-76
2021/04/13 10:41:37;;;;;;;6.97;6.47;;;;;;;24.41;21.87;96358.59;6895278;28;20243;-76
2021/04/13 10:45:16;;;;;;;6.13;5.63;;;;;;;24.59;21.51;96354.41;6880810;28;20220;-76
2021/04/13 10:48:58;;;;;;;6.45;5.82;;;;;;;22.98;21.61;96360.19;6893199;28;20224;-77
2021/04/13 10:52:59;;;;;;;7.22;5.63;;;;;;;22.31;22.95;96367.38;6884096;28;20239;-75
2021/04/13 10:56:58;;;;;;;7.25;6.47;;;;;;;21.10;24.53;96363.44;6855835;28;20233;-76
2021/04/13 11:00:40;;;;;;;6.50;5.90;;;;;;;19.69;26.07;96369.25;6864636;28;20218;-77
2021/04/13 11:04:31;;;;;;;6.27;5.77;;;;;;;18.95;27.63;96379.88;6869140;28;20927;-70
2021/04/13 11:08:22;;;;;;;6.53;5.90;;;;;;;18.21;28.69;96374.94;6878019;28;20216;-77
2021/04/13 11:12:19;;;;;;;6.77;6.17;;;;;;;17.26;29.01;96383.53;6872323;28;20654;-76
2021/04/13 11:16:01;;;;;;;7.60;6.50;;;;;;;15.97;31.30;96387.00;6897281;28;20218;-77
2021/04/13 11:19:38;;;;;;;7.03;5.97;;;;;;;14.92;33.04;96385.81;6897851;28;20865;-77
2021/04/13 11:23:41;;;;;;;8.27;6.63;;;;;;;14.37;35.32;96390.63;6910678;28;20595;-78
2021/04/13 11:27:26;;;;;;;7.77;7.07;;;;;;;13.52;36.20;96399.63;6896223;28;20591;-75
2021/04/13 11:30:58;;;;;;;8.63;7.63;;;;;;;12.47;39.10;96398.25;6890192;28;20232;-74
2021/04/13 11:34:31;;;;;;;7.70;7.00;;;;;;;11.76;41.06;96402.94;6885294;28;20231;-74
2021/04/13 11:37:57;;;;;;;7.83;7.00;;;;;;;11.76;42.92;96395.81;6881760;28;20240;-75
2021/04/13 11:41:38;;;;;;;8.30;7.50;;;;;;;12.06;44.57;96383.78;6883820;28;20215;-74
2021/04/13 11:45:36;;;;;;;8.33;7.63;;;;;;;12.23;45.58;96383.31;6876665;28;20266;-73
2021/04/13 11:49:10;;;;;;;7.20;6.60;;;;;;;12.15;46.66;96375.94;6882080;28;20229;-74
2021/04/13 11:52:35;;;;;;;5.77;5.27;;;;;;;12.14;45.96;96374.22;6889474;28;20208;-73
2021/04/13 11:55:56;;;;;;;5.70;5.20;;;;;;;12.25;45.02;96373.41;6899487;28;20227;-74
2021/04/13 11:59:23;;;;;;;5.47;4.97;;;;;;;12.39;44.57;96376.69;6883522;28;20229;-74
2021/04/13 12:02:44;;;;;;;5.60;5.10;;;;;;;12.58;43.96;96375.22;6857664;28;20213;-75
2021/04/13 12:06:12;;;;;;;4.97;4.57;;;;;;;12.74;41.90;96373.91;6878000;28;20224;-72
2021/04/13 12:09:48;;;;;;;6.37;5.50;;;;;;;12.65;41.20;96366.66;6876902;28;20255;-73
2021/04/13 12:13:09;;;;;;;8.67;5.47;;;;;;;12.59;40.97;96369.78;6872872;28;20300;-74
2021/04/13 12:16:50;;;;;;;5.60;5.10;;;;;;;12.33;40.69;96366.50;6853307;28;20232;-74
2021/04/13 12:20:26;;;;;;;5.60;4.87;;;;;;;12.23;41.35;96367.34;6875803;28;20226;-74
2021/04/13 12:23:53;;;;;;;3.50;3.20;;;;;;;12.43;40.47;96369.28;6877372;28;20586;-74
2021/04/13 12:27:43;;;;;;;4.30;3.90;;;;;;;12.54;39.00;96374.63;6899383;28;20213;-74
2021/04/13 12:31:26;;;;;;;4.43;3.97;;;;;;;12.55;38.62;96383.47;6878518;28;20672;-73
2021/04/13 12:34:47;;;;;;;4.20;3.37;;;;;;;12.50;38.60;96380.31;6891406;28;20296;-73
2021/04/13 12:38:38;;;;;;;4.03;3.53;;;;;;;12.26;37.42;96381.28;6879400;28;20596;-73
2021/04/13 12:42:00;;;;;;;4.07;3.20;;;;;;;12.27;37.79;96385.63;6898469;28;20231;-75
2021/04/13 12:45:21;;;;;;;3.40;3.10;;;;;;;12.23;37.93;96376.19;6876312;28;20209;-73
2021/04/13 12:48:44;;;;;;;3.97;3.60;;;;;;;11.97;37.18;96386.16;6892023;28;20224;-73
2021/04/13 12:52:07;;;;;;;5.00;3.60;;;;;;;11.76;38.16;96385.16;6881669;28;20217;-74
2021/04/13 12:55:31;;;;;;;4.33;3.87;;;;;;;11.50;39.01;96386.22;6899643;28;20246;-74
2021/04/13 12:58:52;;;;;;;3.87;3.57;;;;;;;11.46;40.22;96380.28;6899014;28;20254;-74
2021/04/13 13:02:34;;;;;;;3.40;3.10;;;;;;;11.57;40.21;96382.97;6898727;28;20225;-73
2021/04/13 13:05:57;;;;;;;4.47;3.83;;;;;;;11.62;39.64;96387.94;6896225;28;20213;-74
2021/04/13 13:09:26;;;;;;;4.20;3.80;;;;;;;11.56;40.42;96391.94;6901516;28;20224;-74
2021/04/13 13:12:46;;;;;;;4.10;3.63;;;;;;;11.57;40.52;96390.97;6874668;28;20240;-74
2021/04/13 13:16:17;;;;;;;4.00;3.60;;;;;;;11.77;39.58;96394.81;6871231;28;20229;-74
2021/04/13 13:19:50;;;;;;;4.40;4.00;;;;;;;11.64;39.09;96396.69;6893589;28;20748;-71
2021/04/13 13:23:35;;;;;;;4.70;4.30;;;;;;;11.78;40.11;96388.53;6893587;28;20253;-72
2021/04/13 13:26:56;;;;;;;4.53;4.13;;;;;;;11.88;39.97;96378.03;6894197;28;20243;-73
2021/04/13 13:30:18;;;;;;;4.57;3.70;;;;;;;11.73;40.32;96372.06;6888257;28;20517;-72
2021/04/13 13:33:39;;;;;;;4.40;4.10;;;;;;;11.65;41.33;96376.25;6901524;28;20725;-76
2021/04/13 13:37:01;;;;;;;4.50;4.10;;;;;;;11.41;41.95;96379.78;6892223;28;20212;-73
2021/04/13 13:40:25;;;;;;;4.27;3.90;;;;;;;11.48;42.05;96378.34;6869413;28;20804;-70
2021/04/13 13:43:48;;;;;;;5.03;4.23;;;;;;;11.55;41.54;96376.09;6897965;28;20306;-70
2021/04/13 13:47:25;;;;;;;8.27;4.17;;;;;;;11.46;41.34;96374.97;6900993;28;20296;-71
2021/04/13 13:51:00;;;;;;;3.80;3.47;;;;;;;11.39;41.17;96384.38;6896979;28;20220;-72
2021/04/13 13:54:25;;;;;;;3.97;3.63;;;;;;;11.25;41.12;96383.69;6895637;28;20227;-71
2021/04/13 13:58:04;;;;;;;4.60;4.10;;;;;;;11.05;41.09;96367.38;6877872;28;20292;-71
2021/04/13 14:01:24;;;;;;;4.67;3.90;;;;;;;11.20;42.27;96365.41;6888685;28;20828;-70
2021/04/13 14:04:45;;;;;;;4.73;4.13;;;;;;;11.37;41.46;96365.00;6894105;28;20221;-72
2021/04/13 14:08:16;;;;;;;3.80;3.50;;;;;;;11.31;40.84;96357.50;6899387;28;20220;-71
2021/04/13 14:11:39;;;;;;;4.80;3.07;;;;;;;11.21;40.80;96358.28;6875446;28;20298;-71
2021/04/13 14:14:59;;;;;;;4.03;2.73;;;;;;;10.99;40.84;96366.97;6875928;28;20252;-72
2021/04/13 14:18:33;;;;;;;3.97;2.80;;;;;;;10.71;40.76;96361.00;6861703;28;20222;-71
2021/04/13 14:22:19;;;;;;;3.90;2.73;;;;;;;10.29;40.42;96366.69;6877375;28;20312;-71
2021/04/13 14:25:39;;;;;;;3.80;3.50;;;;;;;10.23;42.30;96367.97;6875726;28;20208;-71
2021/04/13 14:29:05;;;;;;;3.83;3.53;;;;;;;10.33;42.71;96357.56;6881804;28;20247;-72
2021/04/13 14:32:27;;;;;;;3.20;2.90;;;;;;;10.27;42.60;96360.63;6865709;28;21091;-72
2021/04/13 14:35:49;;;;;;;3.50;3.20;;;;;;;10.13;42.21;96358.06;6879272;28;20219;-72
2021/04/13 14:39:13;;;;;;;2.83;2.63;;;;;;;10.16;43.08;96353.41;6877495;28;20220;-71
2021/04/13 14:42:35;;;;;;;3.13;2.87;;;;;;;10.16;42.41;96356.06;6896834;28;20252;-71
2021/04/13 14:45:55;;;;;;;3.53;3.23;;;;;;;10.06;42.33;96349.66;6878371;28;20301;-72
2021/04/13 14:49:16;;;;;;;3.67;3.33;;;;;;;9.90;42.48;96352.56;6883942;28;20317;-72
2021/04/13 14:52:37;;;;;;;3.87;3.10;;;;;;;9.86;42.81;96342.22;6891085;28;20660;-71
2021/04/13 14:55:58;;;;;;;2.50;2.30;;;;;;;9.93;42.91;96343.53;6894272;28;20236;-71
2021/04/13 14:59:20;;;;;;;3.57;3.27;;;;;;;9.89;42.01;96345.56;6873778;28;20248;-71
2021/04/13 15:02:41;;;;;;;3.07;2.83;;;;;;;9.84;41.95;96336.19;6891548;28;20311;-71
2021/04/13 15:06:02;;;;;;;2.80;2.60;;;;;;;9.76;40.85;96331.41;6882271;28;20217;-71
2021/04/13 15:09:23;;;;;;;2.70;2.50;;;;;;;9.70;41.17;96329.19;6899248;28;20227;-71
2021/04/13 15:12:43;;;;;;;3.70;2.70;;;;;;;9.71;40.56;96322.06;6871003;28;20227;-71
2021/04/13 15:16:04;;;;;;;4.13;2.80;;;;;;;9.79;40.36;96322.41;6874098;28;20230;-71
2021/04/13 15:19:27;;;;;;;2.53;2.33;;;;;;;9.87;40.84;96317.41;6879258;28;20745;-71
2021/04/13 15:22:50;;;;;;;2.60;2.40;;;;;;;10.02;40.84;96321.66;6863339;28;20703;-71
2021/04/13 15:26:11;;;;;;;3.47;3.17;;;;;;;9.93;39.59;96318.78;6875265;28;20522;-71
2021/04/13 15:29:32;;;;;;;3.60;3.30;;;;;;;9.72;38.58;96315.81;6854243;28;20958;-73
2021/04/13 15:32:52;;;;;;;3.93;3.23;;;;;;;9.66;38.90;96310.91;6857778;28;20712;-71
2021/04/13 15:36:15;;;;;;;3.00;2.80;;;;;;;9.59;39.04;96310.50;6876246;28;20221;-72
2021/04/13 15:39:36;;;;;;;3.43;3.13;;;;;;;9.70;39.08;96313.28;6894077;28;20226;-71
2021/04/13 15:43:18;;;;;;;4.13;3.47;;;;;;;9.84;39.51;96296.41;6847499;28;20607;-71
2021/04/13 15:46:39;;;;;;;5.30;4.10;;;;;;;9.94;39.30;96300.13;6859220;28;20219;-71
2021/04/13 15:49:59;;;;;;;4.37;3.97;;;;;;;9.88;38.60;96305.84;6891011;28;20222;-70
2021/04/13 15:53:22;;;;;;;4.17;3.40;;;;;;;9.88;39.06;96290.78;6880099;28;20220;-71
2021/04/13 15:56:44;;;;;;;4.83;3.60;;;;;;;10.04;39.50;96295.03;6859120;28;20223;-71
2021/04/13 16:00:07;;;;;;;4.10;3.80;;;;;;;10.25;39.59;96293.53;6879860;28;20225;-71
2021/04/13 16:03:27;;;;;;;4.10;3.80;;;;;;;10.42;38.72;96295.81;6870802;28;20260;-72
2021/04/13 16:06:47;;;;;;;5.40;3.67;;;;;;;10.60;38.97;96291.88;6869084;28;20217;-72
2021/04/13 16:10:08;;;;;;;5.20;4.03;;;;;;;10.69;38.14;96282.38;6883045;28;20375;-72
2021/04/13 16:13:29;;;;;;;5.23;3.47;;;;;;;10.72;38.11;96285.66;6881069;28;20729;-72
2021/04/13 16:16:49;;;;;;;4.50;4.10;;;;;;;10.76;38.15;96275.66;6878419;28;20863;-73
2021/04/13 16:20:10;;;;;;;5.03;3.80;;;;;;;10.72;36.91;96292.75;6869556;28;20217;-73
2021/04/13 16:23:31;;;;;;;6.00;5.10;;;;;;;10.61;37.14;96290.88;6858032;28;20737;-72
2021/04/13 16:26:54;;;;;;;3.93;3.63;;;;;;;10.47;37.32;96284.88;6865153;28;20221;-74
2021/04/13 16:30:16;;;;;;;5.33;4.90;;;;;;;10.31;37.58;96290.47;6889948;28;20284;-73